Time;durP1;ratioP1;P1;durP2;ratioP2;P2;SDS_P1;SDS_P2;PMS_P1;PMS_P2;Temp;Humidity;BMP_temperature;BMP_pressure;BME280_temperature;BME280_humidity;BME280_pressure;Samples;Min_cycle;Max_cycle;Signal;HPM_P1;HPM_P2
2022/10/14 00:02:07;;;;;;;67.30;63.25;;;17.20;99.90;;;;;;4963253;28;20487;-81
2022/10/14 00:04:33;;;;;;;58.55;54.75;;;17.30;99.90;;;;;;4991103;28;20038;-81
2022/10/14 00:07:00;;;;;;;62.83;58.85;;;17.30;99.90;;;;;;4999803;28;20883;-81
2022/10/14 00:09:26;;;;;;;62.33;58.15;;;17.30;99.90;;;;;;4975537;28;20046;-81
2022/10/14 00:11:52;;;;;;;65.82;61.25;;;17.40;99.90;;;;;;4991689;28;20646;-81
2022/10/14 00:14:18;;;;;;;66.25;61.92;;;17.40;99.90;;;;;;4972286;28;20046;-81
2022/10/14 00:16:45;;;;;;;65.82;61.65;;;17.30;99.90;;;;;;4956043;28;20042;-81
2022/10/14 00:19:12;;;;;;;66.75;62.22;;;17.20;99.90;;;;;;4977310;28;20045;-81
2022/10/14 00:21:39;;;;;;;62.97;58.83;;;17.30;99.90;;;;;;4946125;28;20043;-81
2022/10/14 00:24:05;;;;;;;71.13;66.75;;;17.30;99.90;;;;;;4956571;28;20039;-81
2022/10/14 00:26:33;;;;;;;75.95;71.03;;;17.30;99.90;;;;;;4992202;28;20034;-81
2022/10/14 00:28:59;;;;;;;73.40;68.50;;;17.30;99.90;;;;;;4966428;28;20038;-81
2022/10/14 00:31:26;;;;;;;83.88;78.18;;;17.20;99.90;;;;;;4955586;28;20039;-81
2022/10/14 00:33:52;;;;;;;76.38;70.82;;;17.20;99.90;;;;;;4957731;28;20023;-81
2022/10/14 00:36:19;;;;;;;72.55;67.10;;;17.20;99.90;;;;;;4988192;28;20384;-81
2022/10/14 00:38:46;;;;;;;68.28;62.78;;;17.10;99.90;;;;;;4972327;28;20039;-81
2022/10/14 00:41:17;;;;;;;70.90;65.43;;;17.10;99.90;;;;;;4955819;28;20038;-81
2022/10/14 00:43:51;;;;;;;;;;;17.10;99.90;;;;;;4957273;28;20401;-80
2022/10/14 00:46:17;;;;;;;60.30;55.55;;;17.20;99.90;;;;;;4971776;28;19910;-81
2022/10/14 00:48:43;;;;;;;66.20;60.85;;;17.10;99.90;;;;;;4959511;28;20038;-81
2022/10/14 00:51:09;;;;;;;62.15;56.95;;;17.10;99.90;;;;;;4955715;28;20031;-81
2022/10/14 00:53:35;;;;;;;60.58;55.63;;;17.10;99.90;;;;;;4972264;28;20038;-81
2022/10/14 00:56:02;;;;;;;66.57;60.92;;;17.10;99.90;;;;;;4955953;28;20042;-81
2022/10/14 00:58:28;;;;;;;75.43;69.53;;;17.20;99.90;;;;;;4968958;28;20046;-81
2022/10/14 01:00:54;;;;;;;64.85;59.33;;;17.10;99.90;;;;;;4986960;28;20042;-81
2022/10/14 01:03:21;;;;;;;65.07;58.97;;;17.20;99.90;;;;;;4987402;28;20030;-81
2022/10/14 01:05:54;;;;;;;63.97;58.53;;;17.20;99.90;;;;;;4988771;28;20026;-81
2022/10/14 01:08:30;;;;;;;59.78;54.55;;;17.20;99.90;;;;;;4984301;28;20046;-81
2022/10/14 01:11:42;;;;;;;60.17;54.78;;;17.30;99.90;;;;;;4971943;28;20034;-81
2022/10/14 01:14:14;;;;;;;60.53;55.45;;;17.30;99.90;;;;;;4948225;28;20035;-81
2022/10/14 01:16:52;;;;;;;59.03;53.88;;;17.30;99.90;;;;;;4952460;28;20058;-81
2022/10/14 01:19:41;;;;;;;57.40;52.38;;;17.20;99.90;;;;;;4919866;28;20480;-81
2022/10/14 01:22:32;;;;;;;55.20;50.00;;;17.20;99.90;;;;;;4945349;29;20059;-81
2022/10/14 01:25:30;;;;;;;55.05;50.03;;;17.10;99.90;;;;;;4912766;29;20036;-81
2022/10/14 01:28:07;;;;;;;57.53;51.95;;;17.10;99.90;;;;;;4928963;29;20074;-81
2022/10/14 01:30:34;;;;;;;58.28;52.00;;;17.10;99.90;;;;;;4916663;29;20408;-81
2022/10/14 01:33:26;;;;;;;55.13;49.33;;;17.10;99.90;;;;;;4921930;28;20043;-81
2022/10/14 01:35:55;;;;;;;53.72;47.50;;;17.20;99.90;;;;;;4937096;28;20059;-81
2022/10/14 01:38:35;;;;;;;54.25;48.65;;;17.10;99.90;;;;;;4935590;29;20047;-81
2022/10/14 01:41:04;;;;;;;58.58;52.55;;;17.20;99.90;;;;;;4919298;29;20070;-81
2022/10/14 01:43:30;;;;;;;59.47;53.83;;;17.10;99.90;;;;;;4935143;29;20044;-81
2022/10/14 01:45:57;;;;;;;63.78;57.83;;;17.10;99.90;;;;;;4919412;29;20047;-81
2022/10/14 01:48:25;;;;;;;57.15;51.33;;;17.10;99.90;;;;;;4903756;29;20044;-81
2022/10/14 01:50:51;;;;;;;62.00;56.13;;;17.10;99.90;;;;;;4898250;29;20047;-81
2022/10/14 01:53:23;;;;;;;67.25;60.33;;;17.20;99.90;;;;;;4916207;29;20521;-81
2022/10/14 01:55:49;;;;;;;70.57;62.90;;;17.10;99.90;;;;;;4891615;29;20489;-81
2022/10/14 01:58:16;;;;;;;79.18;68.43;;;17.10;99.90;;;;;;4904025;29;20477;-81
2022/10/14 02:00:42;;;;;;;76.05;67.97;;;17.10;99.90;;;;;;4918828;28;20028;-81
2022/10/14 02:03:10;;;;;;;81.90;74.13;;;17.10;99.90;;;;;;4950474;28;20051;-81
2022/10/14 02:05:50;;;;;;;76.95;68.72;;;17.20;99.90;;;;;;4967996;28;20468;-82
2022/10/14 02:08:25;;;;;;;73.45;66.15;;;17.20;99.90;;;;;;4969517;28;20046;-82
2022/10/14 02:11:03;;;;;;;75.30;66.93;;;17.10;99.90;;;;;;4981752;28;20408;-81
2022/10/14 02:14:08;;;;;;;70.50;63.38;;;17.00;99.90;;;;;;4982365;28;20472;-81
2022/10/14 02:17:10;;;;;;;72.18;64.68;;;17.00;99.90;;;;;;4975680;28;20042;-81
2022/10/14 02:19:57;;;;;;;67.07;60.17;;;17.10;99.90;;;;;;4981515;28;20053;-81
2022/10/14 02:22:24;;;;;;;70.75;62.72;;;17.00;99.90;;;;;;4972546;28;20047;-81
2022/10/14 02:24:52;;;;;;;74.43;66.43;;;17.00;99.90;;;;;;4985033;28;20038;-81
2022/10/14 02:27:18;;;;;;;70.95;63.97;;;17.00;99.90;;;;;;4973233;28;20031;-81
2022/10/14 02:29:45;;;;;;;69.93;62.90;;;17.00;99.90;;;;;;4956790;28;20062;-81
2022/10/14 02:32:13;;;;;;;74.03;66.00;;;17.00;99.90;;;;;;4972235;28;20503;-82
2022/10/14 02:34:39;;;;;;;71.80;64.72;;;17.00;99.90;;;;;;4956955;28;20122;-80
2022/10/14 02:37:05;;;;;;;72.30;64.82;;;17.00;99.90;;;;;;4960030;28;20038;-81
2022/10/14 02:39:34;;;;;;;75.40;68.13;;;17.00;99.90;;;;;;4977433;28;20487;-80
2022/10/14 02:42:00;;;;;;;75.85;68.45;;;17.00;99.90;;;;;;4993480;28;20025;-80
2022/10/14 02:44:27;;;;;;;71.28;64.35;;;17.00;99.90;;;;;;4956280;28;20061;-80
2022/10/14 02:46:56;;;;;;;62.50;56.42;;;17.10;99.90;;;;;;4948471;28;20038;-81
2022/10/14 02:49:22;;;;;;;69.78;63.08;;;17.00;99.90;;;;;;4971896;28;20054;-80
2022/10/14 02:51:48;;;;;;;62.58;56.22;;;16.90;99.90;;;;;;4941967;28;20034;-81
2022/10/14 02:54:14;;;;;;;77.03;70.10;;;16.90;99.90;;;;;;4984746;28;20395;-80
2022/10/14 02:56:40;;;;;;;70.30;64.28;;;16.90;99.90;;;;;;4990072;28;20038;-81
2022/10/14 02:59:06;;;;;;;57.22;51.88;;;17.00;99.90;;;;;;4985766;28;20034;-80
2022/10/14 03:01:32;;;;;;;64.68;59.15;;;16.90;99.90;;;;;;4960696;28;20053;-80
2022/10/14 03:03:58;;;;;;;67.45;61.35;;;16.90;99.90;;;;;;4977402;28;20476;-80
2022/10/14 03:06:24;;;;;;;70.88;64.63;;;16.90;99.90;;;;;;4999080;28;20033;-80
2022/10/14 03:08:50;;;;;;;64.10;58.67;;;16.90;99.90;;;;;;4973812;28;20465;-80
2022/10/14 03:11:17;;;;;;;63.92;58.33;;;16.90;99.90;;;;;;4973877;28;20039;-81
2022/10/14 03:13:43;;;;;;;51.83;47.05;;;16.90;99.90;;;;;;4969431;28;20463;-80
2022/10/14 03:16:09;;;;;;;53.50;48.75;;;16.90;99.90;;;;;;4973980;28;20043;-80
2022/10/14 03:18:35;;;;;;;57.78;52.85;;;16.90;99.90;;;;;;4991049;28;20061;-81
2022/10/14 03:21:01;;;;;;;51.00;46.50;;;16.90;99.90;;;;;;4987361;28;20059;-80
2022/10/14 03:23:27;;;;;;;49.17;45.05;;;16.90;99.90;;;;;;4990979;28;20057;-80
2022/10/14 03:25:53;;;;;;;46.10;42.08;;;16.90;99.90;;;;;;4965738;28;20045;-82
2022/10/14 03:28:19;;;;;;;46.40;42.70;;;16.90;99.90;;;;;;4971034;28;20053;-81
2022/10/14 03:30:45;;;;;;;49.45;45.30;;;16.90;99.90;;;;;;4981678;28;20035;-81
2022/10/14 03:33:11;;;;;;;50.80;46.88;;;16.90;99.90;;;;;;4977814;28;20034;-81
2022/10/14 03:35:38;;;;;;;57.95;53.58;;;16.90;99.90;;;;;;4998585;28;20467;-82
2022/10/14 03:38:05;;;;;;;61.15;56.67;;;17.00;99.90;;;;;;4959062;28;20057;-81
2022/10/14 03:40:31;;;;;;;67.70;63.05;;;17.00;99.90;;;;;;4977281;28;20426;-82
2022/10/14 03:42:59;;;;;;;61.38;56.50;;;17.00;99.90;;;;;;5012097;28;20033;-82
2022/10/14 03:45:27;;;;;;;54.95;50.72;;;16.90;99.90;;;;;;5011249;28;20479;-81
2022/10/14 03:47:54;;;;;;;64.95;60.38;;;16.90;99.90;;;;;;4988664;28;20031;-82
2022/10/14 03:50:20;;;;;;;65.65;60.97;;;16.90;99.90;;;;;;4986277;28;20428;-81
2022/10/14 03:52:46;;;;;;;70.68;65.85;;;16.90;99.90;;;;;;4986043;28;20034;-85
2022/10/14 03:55:12;;;;;;;62.30;57.80;;;16.90;99.90;;;;;;4987465;28;20376;-84
2022/10/14 03:57:38;;;;;;;65.40;60.92;;;16.90;99.90;;;;;;4990654;28;20494;-84
2022/10/14 04:00:05;;;;;;;69.65;65.10;;;16.90;99.90;;;;;;4991456;28;20034;-84
2022/10/14 04:02:31;;;;;;;67.32;62.97;;;16.90;99.90;;;;;;4990641;28;20034;-84
2022/10/14 04:04:57;;;;;;;60.40;56.53;;;16.90;99.90;;;;;;4959752;28;20479;-84
2022/10/14 04:07:23;;;;;;;58.45;54.80;;;16.90;99.90;;;;;;5004018;28;20030;-86
2022/10/14 04:09:49;;;;;;;47.47;44.30;;;16.80;99.90;;;;;;5007165;28;20387;-86
2022/10/14 04:12:16;;;;;;;38.45;35.55;;;16.90;99.90;;;;;;4970738;28;20030;-87
2022/10/14 04:14:42;;;;;;;41.42;38.53;;;16.80;99.90;;;;;;4959714;28;20049;-86
2022/10/14 04:17:08;;;;;;;39.17;36.47;;;16.80;99.90;;;;;;4975364;28;20399;-87
2022/10/14 04:19:34;;;;;;;43.10;40.42;;;16.80;99.90;;;;;;4972407;28;20039;-86
2022/10/14 04:22:00;;;;;;;33.65;31.13;;;16.80;99.90;;;;;;4956062;28;20047;-86
2022/10/14 04:24:26;;;;;;;30.52;28.42;;;16.80;99.90;;;;;;4972708;28;20027;-86
2022/10/14 04:26:52;;;;;;;27.85;25.80;;;16.70;99.90;;;;;;4985822;28;20368;-85
2022/10/14 04:29:19;;;;;;;30.63;28.40;;;16.70;99.90;;;;;;4949054;28;20042;-86
2022/10/14 04:31:45;;;;;;;34.17;31.92;;;16.70;99.90;;;;;;4987161;28;20058;-86
2022/10/14 04:34:11;;;;;;;32.45;30.17;;;16.70;99.90;;;;;;4991746;28;20027;-87
2022/10/14 04:36:37;;;;;;;38.10;35.28;;;16.70;99.90;;;;;;4970544;28;20057;-85
2022/10/14 04:39:03;;;;;;;30.85;28.52;;;16.70;99.90;;;;;;4983057;28;20034;-86
2022/10/14 04:41:29;;;;;;;33.40;31.15;;;16.70;99.90;;;;;;4976769;28;20053;-86
2022/10/14 04:43:55;;;;;;;24.52;22.40;;;16.80;99.90;;;;;;4973146;28;20058;-86
2022/10/14 04:46:22;;;;;;;23.85;22.33;;;16.80;99.90;;;;;;4955588;28;20111;-86
2022/10/14 04:48:48;;;;;;;27.48;25.73;;;16.70;99.90;;;;;;4980222;28;20035;-87
2022/10/14 04:51:14;;;;;;;27.70;25.75;;;16.70;99.90;;;;;;4959311;28;20487;-87
2022/10/14 04:53:40;;;;;;;24.90;22.70;;;16.70;99.90;;;;;;4975242;28;20037;-86
2022/10/14 04:56:06;;;;;;;24.08;22.23;;;16.70;99.90;;;;;;4975586;28;20038;-87
2022/10/14 04:58:32;;;;;;;24.10;22.33;;;16.70;99.90;;;;;;4991515;28;20041;-85
2022/10/14 05:00:58;;;;;;;24.48;22.88;;;16.60;99.90;;;;;;4986871;28;20403;-86
2022/10/14 05:03:24;;;;;;;25.15;23.00;;;16.70;99.90;;;;;;4972082;28;20035;-87
2022/10/14 05:05:51;;;;;;;22.80;21.10;;;16.70;99.90;;;;;;4971291;28;20415;-86
2022/10/14 05:08:17;;;;;;;21.83;20.30;;;16.70;99.90;;;;;;4959904;28;20030;-86
2022/10/14 05:10:43;;;;;;;22.45;21.08;;;16.70;99.90;;;;;;4976035;28;20046;-86
2022/10/14 05:13:09;;;;;;;21.65;20.35;;;16.70;99.90;;;;;;4989313;28;20038;-86
2022/10/14 05:15:35;;;;;;;21.98;20.33;;;16.60;99.90;;;;;;4989949;28;20057;-86
2022/10/14 05:18:01;;;;;;;24.33;22.90;;;16.60;99.90;;;;;;4976368;28;20053;-86
2022/10/14 05:20:27;;;;;;;22.73;21.20;;;16.60;99.90;;;;;;4959057;28;20042;-86
2022/10/14 05:22:54;;;;;;;24.83;22.98;;;16.70;99.90;;;;;;4982502;28;20387;-86
2022/10/14 05:25:20;;;;;;;26.48;24.63;;;16.60;99.90;;;;;;4994660;28;20031;-86
2022/10/14 05:27:46;;;;;;;21.65;19.73;;;16.70;99.90;;;;;;4978648;28;20030;-86
2022/10/14 05:30:12;;;;;;;23.92;22.38;;;16.70;99.90;;;;;;4978563;28;20464;-87
2022/10/14 05:32:38;;;;;;;22.35;20.85;;;16.60;99.90;;;;;;4962256;28;20400;-87
2022/10/14 05:35:04;;;;;;;25.17;23.27;;;16.60;99.90;;;;;;4978197;28;20041;-86
2022/10/14 05:37:30;;;;;;;40.92;38.78;;;16.60;99.90;;;;;;4981669;28;20039;-86
2022/10/14 05:39:57;;;;;;;40.35;37.80;;;16.60;99.90;;;;;;4975413;28;20027;-86
2022/10/14 05:42:23;;;;;;;43.55;40.85;;;16.60;99.90;;;;;;4971063;28;20043;-86
2022/10/14 05:44:49;;;;;;;42.25;39.67;;;16.60;99.90;;;;;;4975339;28;20026;-86
2022/10/14 05:47:15;;;;;;;46.65;43.33;;;16.70;99.90;;;;;;4987641;28;20041;-87
2022/10/14 05:49:42;;;;;;;46.20;42.92;;;16.70;99.90;;;;;;4962095;28;20026;-88
2022/10/14 05:52:08;;;;;;;45.30;42.33;;;16.70;99.90;;;;;;4957865;28;20046;-89
2022/10/14 05:54:34;;;;;;;43.90;41.28;;;16.70;99.90;;;;;;4971918;28;20471;-93
2022/10/14 05:57:00;;;;;;;47.03;44.30;;;16.80;99.90;;;;;;4990291;28;20057;-85
2022/10/14 05:59:28;;;;;;;43.65;41.13;;;16.70;99.90;;;;;;5370871;22;20025;-92
2022/10/14 06:01:55;;;;;;;48.90;46.05;;;16.70;99.90;;;;;;4986959;28;20039;-92
2022/10/14 06:04:21;;;;;;;50.75;47.85;;;16.70;99.90;;;;;;4978820;28;20023;-92
2022/10/14 06:06:47;;;;;;;52.08;48.85;;;16.70;99.90;;;;;;4977290;28;20046;-91
2022/10/14 06:09:14;;;;;;;48.10;45.40;;;16.70;99.90;;;;;;4959571;28;20400;-90
2022/10/14 06:11:40;;;;;;;45.13;42.60;;;16.70;99.90;;;;;;4976820;28;20046;-90
2022/10/14 06:14:06;;;;;;;53.25;50.13;;;16.80;99.90;;;;;;4976728;28;20046;-89
2022/10/14 06:16:32;;;;;;;51.53;48.55;;;16.70;99.90;;;;;;4982149;28;20047;-92
2022/10/14 06:18:58;;;;;;;45.42;42.72;;;16.80;99.90;;;;;;4978014;28;20476;-89
2022/10/14 06:21:25;;;;;;;41.90;39.22;;;16.70;99.90;;;;;;4976301;28;20035;-92
2022/10/14 06:23:51;;;;;;;41.53;38.92;;;16.70;99.90;;;;;;4976355;28;20027;-89
2022/10/14 06:26:17;;;;;;;39.50;36.85;;;16.70;99.90;;;;;;4960341;28;20037;-92
2022/10/14 06:28:43;;;;;;;41.15;38.72;;;16.60;99.90;;;;;;4971097;28;20079;-82
2022/10/14 06:31:09;;;;;;;38.80;36.08;;;16.70;99.90;;;;;;4963526;28;20039;-90
2022/10/14 06:33:35;;;;;;;37.00;34.55;;;16.60;99.90;;;;;;4960912;28;20393;-87
2022/10/14 06:36:02;;;;;;;39.97;37.42;;;16.50;99.90;;;;;;4954584;29;20039;-86
2022/10/14 06:38:28;;;;;;;38.70;36.35;;;16.50;99.90;;;;;;4943793;29;20040;-85
2022/10/14 06:40:54;;;;;;;40.08;37.45;;;16.50;99.90;;;;;;4952927;28;20041;-88
2022/10/14 06:43:21;;;;;;;35.33;32.72;;;16.60;99.90;;;;;;4937097;29;20047;-88
2022/10/14 06:45:47;;;;;;;36.78;34.10;;;16.60;99.90;;;;;;4961209;28;20023;-89
2022/10/14 06:48:13;;;;;;;35.65;33.17;;;16.60;99.90;;;;;;4991236;28;20042;-90
2022/10/14 06:50:40;;;;;;;44.50;41.33;;;16.60;99.90;;;;;;4957689;28;20138;-87
2022/10/14 06:53:06;;;;;;;51.00;47.00;;;16.60;99.90;;;;;;4957505;28;20046;-86
2022/10/14 06:55:32;;;;;;;47.30;44.42;;;16.60;99.90;;;;;;4972274;28;20083;-87
2022/10/14 06:57:58;;;;;;;46.78;43.75;;;16.50;99.90;;;;;;4976262;28;20031;-88
2022/10/14 07:00:24;;;;;;;38.47;35.90;;;16.30;99.90;;;;;;4945535;28;20042;-92
2022/10/14 07:02:50;;;;;;;39.58;36.80;;;16.10;99.90;;;;;;4950326;28;20042;-89
2022/10/14 07:05:16;;;;;;;41.75;38.75;;;16.20;99.90;;;;;;4965039;28;20053;-89
2022/10/14 07:07:42;;;;;;;42.03;38.97;;;16.30;99.90;;;;;;4985104;28;20050;-88
2022/10/14 07:10:09;;;;;;;41.83;38.88;;;16.20;99.90;;;;;;4961285;28;20058;-87
2022/10/14 07:12:35;;;;;;;43.13;40.40;;;16.20;99.90;;;;;;4982061;28;20411;-90
2022/10/14 07:15:01;;;;;;;43.33;40.40;;;16.40;99.90;;;;;;4982012;28;20030;-86
2022/10/14 07:17:27;;;;;;;45.92;42.83;;;16.50;99.90;;;;;;4975054;28;20038;-90
2022/10/14 07:19:53;;;;;;;40.08;37.25;;;16.50;99.90;;;;;;4939795;28;20039;-90
2022/10/14 07:22:19;;;;;;;32.90;30.52;;;16.50;99.90;;;;;;4964116;28;20027;-86
2022/10/14 07:24:45;;;;;;;30.25;28.25;;;16.40;99.90;;;;;;4975974;28;20099;-86
2022/10/14 07:27:14;;;;;;;32.33;30.13;;;16.50;99.90;;;;;;4957122;28;20420;-85
2022/10/14 07:29:41;;;;;;;29.48;27.58;;;16.50;99.90;;;;;;4971903;28;20507;-86
2022/10/14 07:32:07;;;;;;;27.77;25.77;;;16.60;99.90;;;;;;4972404;28;20042;-84
2022/10/14 07:34:33;;;;;;;28.92;26.88;;;16.50;99.90;;;;;;4941234;28;20472;-84
2022/10/14 07:37:00;;;;;;;28.05;26.20;;;16.60;99.90;;;;;;4950746;29;20046;-86
2022/10/14 07:39:26;;;;;;;28.38;26.67;;;16.70;99.90;;;;;;4966226;28;20042;-90
2022/10/14 07:41:52;;;;;;;28.42;26.50;;;16.60;99.90;;;;;;4956939;28;20023;-90
2022/10/14 07:44:19;;;;;;;27.45;25.63;;;16.70;99.90;;;;;;4975333;28;20031;-91
2022/10/14 07:46:46;;;;;;;26.40;24.73;;;16.80;99.90;;;;;;4977200;28;20031;-90
2022/10/14 07:49:20;;;;;;;27.65;26.08;;;16.80;99.90;;;;;;5077496;28;20451;-94
2022/10/14 07:51:46;;;;;;;26.90;24.90;;;16.80;99.90;;;;;;5028060;28;20095;-93
2022/10/14 07:54:14;;;;;;;28.52;26.75;;;16.80;99.90;;;;;;5054451;28;20040;-92
2022/10/14 07:56:41;;;;;;;26.63;25.13;;;16.70;99.90;;;;;;5059396;28;20037;-95
2022/10/14 07:59:07;;;;;;;27.17;25.67;;;16.70;99.90;;;;;;5039639;28;20036;-93
2022/10/14 08:01:34;;;;;;;27.50;25.63;;;16.70;99.90;;;;;;5023283;28;20045;-94
2022/10/14 08:04:00;;;;;;;28.02;26.20;;;16.70;99.90;;;;;;5009526;28;20042;-88
2022/10/14 08:06:26;;;;;;;26.02;24.50;;;16.70;99.90;;;;;;5024770;28;20045;-87
2022/10/14 08:08:52;;;;;;;27.60;25.60;;;16.60;99.90;;;;;;5005957;28;20407;-87
2022/10/14 08:11:26;;;;;;;26.83;25.13;;;16.70;99.90;;;;;;5010301;28;20045;-88
2022/10/14 08:13:52;;;;;;;27.00;25.08;;;16.70;99.90;;;;;;5027936;28;20045;-88
2022/10/14 08:16:25;;;;;;;27.15;25.55;;;16.80;99.90;;;;;;5011063;28;20042;-84
2022/10/14 08:18:52;;;;;;;27.95;26.25;;;16.90;99.90;;;;;;4991008;28;20053;-85
2022/10/14 08:21:19;;;;;;;28.75;26.75;;;16.90;99.90;;;;;;5025129;28;20045;-84
2022/10/14 08:23:45;;;;;;;28.80;26.85;;;16.80;99.90;;;;;;5026556;28;20026;-83
2022/10/14 08:26:26;;;;;;;28.75;26.33;;;16.80;99.90;;;;;;4993628;28;20034;-86
2022/10/14 08:28:52;;;;;;;26.60;24.38;;;16.90;99.90;;;;;;5002600;28;20052;-94
2022/10/14 08:31:18;;;;;;;29.25;26.92;;;16.90;99.90;;;;;;4990495;28;20038;-92
2022/10/14 08:33:44;;;;;;;26.38;24.48;;;17.00;99.90;;;;;;5020285;28;20026;-82
2022/10/14 08:36:11;;;;;;;30.98;28.60;;;16.90;99.90;;;;;;4994069;28;20033;-82
2022/10/14 08:38:37;;;;;;;30.38;28.30;;;17.00;99.90;;;;;;5009455;28;20049;-83
2022/10/14 08:41:12;;;;;;;28.92;26.75;;;17.00;99.90;;;;;;5010897;28;20029;-83
2022/10/14 08:44:29;;;;;;;31.95;29.65;;;17.00;99.90;;;;;;5026962;28;20034;-89
2022/10/14 08:46:57;;;;;;;28.23;26.10;;;17.00;99.90;;;;;;4948050;28;20047;-82
2022/10/14 08:49:41;;;;;;;26.67;24.70;;;17.10;99.90;;;;;;4930803;29;20078;-82
2022/10/14 08:52:08;;;;;;;28.17;26.58;;;17.10;99.90;;;;;;4948182;28;20043;-83
2022/10/14 08:54:43;;;;;;;32.22;29.75;;;17.20;99.90;;;;;;4931775;28;20378;-82
2022/10/14 08:57:16;;;;;;;27.63;25.75;;;17.20;99.90;;;;;;4946409;28;20043;-83
2022/10/14 08:59:42;;;;;;;307.35;63.92;;;17.30;99.90;;;;;;4893532;29;20039;-81
2022/10/14 09:02:35;;;;;;;41.33;38.78;;;17.30;99.90;;;;;;4902664;29;20055;-83
2022/10/14 09:05:01;;;;;;;39.60;36.80;;;17.40;99.90;;;;;;4902879;29;20055;-83
2022/10/14 09:07:27;;;;;;;31.15;29.17;;;17.40;99.90;;;;;;4921471;29;20529;-84
2022/10/14 09:09:59;;;;;;;35.50;33.05;;;17.40;99.90;;;;;;4915684;29;20051;-83
2022/10/14 09:12:30;;;;;;;27.48;25.55;;;17.50;99.90;;;;;;4917119;29;20399;-83
2022/10/14 09:15:11;;;;;;;35.25;33.15;;;17.50;99.90;;;;;;4934279;29;20046;-83
2022/10/14 09:17:59;;;;;;;31.55;29.70;;;17.50;99.90;;;;;;4933541;29;20044;-83
2022/10/14 09:20:27;;;;;;;38.45;35.95;;;17.50;99.90;;;;;;4859128;29;20045;-82
2022/10/14 09:23:09;;;;;;;36.65;34.58;;;17.60;99.90;;;;;;4891045;29;20040;-84
2022/10/14 09:25:35;;;;;;;31.02;29.27;;;17.60;99.90;;;;;;4928545;29;20055;-91
2022/10/14 09:28:01;;;;;;;29.75;27.83;;;17.70;99.90;;;;;;4917888;29;20036;-91
2022/10/14 09:30:29;;;;;;;30.50;28.73;;;17.70;99.90;;;;;;4917013;29;20040;-90
2022/10/14 09:32:55;;;;;;;27.75;26.05;;;17.70;99.90;;;;;;4916352;29;20040;-90
2022/10/14 09:35:25;;;;;;;29.23;27.67;;;17.80;99.90;;;;;;4900175;29;20048;-88
2022/10/14 09:37:52;;;;;;;30.33;28.73;;;17.80;99.90;;;;;;4899580;29;20052;-88
2022/10/14 09:40:18;;;;;;;30.65;28.98;;;17.80;99.90;;;;;;4919934;29;20517;-91
2022/10/14 09:42:56;;;;;;;35.95;34.05;;;17.90;99.90;;;;;;4920121;29;20079;-92
2022/10/14 09:45:23;;;;;;;42.20;39.90;;;17.90;99.90;;;;;;4914238;28;20087;-91
2022/10/14 09:48:08;;;;;;;36.90;34.78;;;18.00;99.90;;;;;;4912072;29;20067;-86
2022/10/14 09:50:37;;;;;;;34.33;32.33;;;17.90;99.90;;;;;;4906517;29;20445;-88
2022/10/14 09:53:12;;;;;;;31.95;30.15;;;18.00;99.90;;;;;;4907508;29;20040;-93
2022/10/14 09:55:46;;;;;;;36.42;34.28;;;18.00;99.90;;;;;;4901959;29;20402;-89
2022/10/14 09:58:15;;;;;;;41.20;38.85;;;18.00;99.90;;;;;;4940424;28;20058;-87
2022/10/14 10:00:42;;;;;;;38.40;36.20;;;18.00;99.90;;;;;;4986796;28;20042;-84
2022/10/14 10:03:08;;;;;;;45.65;43.00;;;18.10;99.90;;;;;;4991934;28;20026;-86
2022/10/14 10:05:35;;;;;;;60.78;57.50;;;18.10;99.90;;;;;;4991194;28;20041;-88
2022/10/14 10:08:21;;;;;;;54.42;51.65;;;18.10;99.90;;;;;;5008173;28;20050;-85
2022/10/14 10:10:57;;;;;;;56.88;53.20;;;18.10;99.90;;;;;;4975720;28;20345;-89
2022/10/14 10:13:34;;;;;;;52.95;49.92;;;18.10;99.90;;;;;;4991852;28;20510;-88
2022/10/14 10:16:02;;;;;;;61.13;57.90;;;18.20;99.90;;;;;;5008420;28;20360;-85
2022/10/14 10:18:28;;;;;;;50.60;47.65;;;18.20;99.90;;;;;;5008137;28;20038;-89
2022/10/14 10:21:06;;;;;;;35.28;33.03;;;18.20;99.90;;;;;;4989455;28;20061;-89
2022/10/14 10:23:33;;;;;;;35.30;32.90;;;18.20;99.90;;;;;;4992122;28;20038;-89
2022/10/14 10:26:14;;;;;;;36.50;34.38;;;18.20;99.90;;;;;;5008326;28;20042;-89
2022/10/14 10:28:44;;;;;;;36.58;34.50;;;18.30;99.90;;;;;;4982551;28;20046;-85
2022/10/14 10:31:34;;;;;;;39.65;37.17;;;18.30;99.90;;;;;;4982514;28;20031;-88
2022/10/14 10:34:55;;;;;;;43.80;41.15;;;18.30;99.90;;;;;;4974380;28;20026;-81
2022/10/14 10:37:39;;;;;;;38.75;36.30;;;18.40;99.90;;;;;;4931345;29;20043;-86
2022/10/14 10:40:23;;;;;;;35.35;33.22;;;18.50;99.90;;;;;;4931293;29;20046;-84
2022/10/14 10:42:53;;;;;;;58.72;55.38;;;18.60;99.90;;;;;;4917848;29;20035;-87
2022/10/14 10:45:38;;;;;;;71.00;67.07;;;18.60;99.90;;;;;;4915501;29;20039;-88
2022/10/14 10:48:35;;;;;;;102.47;96.82;;;18.60;99.90;;;;;;4957046;28;20317;-85
2022/10/14 10:51:08;;;;;;;97.55;92.40;;;18.70;99.90;;;;;;4894608;29;20044;-87
2022/10/14 10:53:38;;;;;;;87.57;82.80;;;18.70;99.90;;;;;;4894835;29;20036;-88
2022/10/14 10:56:04;;;;;;;80.82;76.60;;;18.70;99.90;;;;;;4907792;29;20497;-87
2022/10/14 10:58:39;;;;;;;80.60;76.30;;;18.70;99.90;;;;;;4891599;29;20197;-87
2022/10/14 11:01:08;;;;;;;71.03;67.28;;;18.70;99.90;;;;;;4892880;29;20510;-91
2022/10/14 11:03:37;;;;;;;58.85;55.22;;;18.70;99.90;;;;;;4894325;29;20048;-87
2022/10/14 11:12:29;;;;;;;77.85;73.57;;;18.80;99.90;;;;;;4915268;29;20500;-84
2022/10/14 11:15:01;;;;;;;78.57;74.35;;;18.80;99.90;;;;;;4931367;29;20179;-83
2022/10/14 11:17:38;;;;;;;74.57;70.07;;;18.80;99.90;;;;;;4926968;28;20047;-83
2022/10/14 11:20:29;;;;;;;67.93;63.65;;;18.80;99.90;;;;;;4909640;29;20044;-80
2022/10/14 11:23:21;;;;;;;62.77;59.13;;;18.80;99.90;;;;;;4894807;29;20036;-81
2022/10/14 11:25:50;;;;;;;53.92;50.58;;;18.80;99.90;;;;;;4893142;29;20493;-80
2022/10/14 11:28:34;;;;;;;55.10;51.30;;;18.80;99.90;;;;;;4958147;28;20066;-81
2022/10/14 11:31:16;;;;;;;43.00;40.53;;;18.80;99.90;;;;;;4971466;28;20030;-81
2022/10/14 11:33:52;;;;;;;54.42;50.83;;;18.80;99.90;;;;;;4987008;28;20026;-81
2022/10/14 11:36:19;;;;;;;46.47;43.97;;;18.80;99.90;;;;;;4972013;28;20033;-81
2022/10/14 11:39:05;;;;;;;56.47;53.05;;;18.90;99.90;;;;;;4971738;28;20046;-81
2022/10/14 11:41:44;;;;;;;49.38;46.28;;;18.90;99.90;;;;;;4972038;28;20047;-81
2022/10/14 11:44:16;;;;;;;64.65;61.15;;;19.00;99.90;;;;;;4972425;28;20031;-81
2022/10/14 11:46:44;;;;;;;58.17;54.53;;;19.00;99.90;;;;;;4991234;28;20061;-81
2022/10/14 11:49:16;;;;;;;67.55;63.63;;;19.00;99.90;;;;;;4991254;28;20042;-81
2022/10/14 11:52:01;;;;;;;59.45;55.97;;;18.90;99.90;;;;;;4991221;28;20049;-81
2022/10/14 11:54:30;;;;;;;61.22;57.65;;;18.90;99.90;;;;;;4980014;28;20035;-81
2022/10/14 11:57:14;;;;;;;73.45;69.20;;;19.00;99.90;;;;;;4971242;28;20046;-81
2022/10/14 11:59:54;;;;;;;36.10;33.42;;;19.10;99.90;;;;;;4989281;28;20029;-81
2022/10/14 12:02:41;;;;;;;54.88;51.40;;;19.10;99.90;;;;;;4971741;28;20391;-81
2022/10/14 12:05:18;;;;;;;28.27;25.80;;;19.20;99.90;;;;;;4987901;28;20051;-81
2022/10/14 12:07:59;;;;;;;37.60;34.47;;;19.20;99.90;;;;;;4987642;28;20023;-81
2022/10/14 12:10:35;;;;;;;46.53;43.00;;;19.20;99.90;;;;;;4984670;28;20042;-81
2022/10/14 12:13:06;;;;;;;27.67;25.45;;;19.20;99.90;;;;;;4970568;28;20038;-81
2022/10/14 12:15:32;;;;;;;31.38;28.98;;;19.20;99.90;;;;;;4979188;28;20034;-81
2022/10/14 12:18:02;;;;;;;27.42;25.00;;;19.30;99.90;;;;;;5022141;28;20022;-81
2022/10/14 12:20:33;;;;;;;29.35;26.67;;;19.30;99.90;;;;;;4970485;28;20483;-81
2022/10/14 12:22:59;;;;;;;29.88;27.00;;;19.30;99.90;;;;;;4984838;28;20471;-81
2022/10/14 12:25:27;;;;;;;28.40;25.90;;;19.40;99.90;;;;;;4974671;28;20479;-81
2022/10/14 12:27:54;;;;;;;27.80;24.83;;;19.50;99.90;;;;;;4964459;28;20494;-81
2022/10/14 12:30:37;;;;;;;32.97;29.83;;;19.60;99.90;;;;;;4973699;28;20049;-81
2022/10/14 12:33:04;;;;;;;33.10;30.15;;;19.70;99.90;;;;;;4970815;28;20035;-81
2022/10/14 12:35:49;;;;;;;34.42;31.23;;;19.70;99.90;;;;;;4973906;28;20027;-81
2022/10/14 12:38:15;;;;;;;31.63;28.60;;;19.70;99.90;;;;;;4976451;28;20026;-81
2022/10/14 12:40:41;;;;;;;31.02;28.00;;;19.80;99.90;;;;;;4975507;28;20042;-81
2022/10/14 12:43:14;;;;;;;26.55;23.30;;;19.80;99.90;;;;;;4991301;28;20035;-81
2022/10/14 12:45:47;;;;;;;29.27;26.17;;;19.70;99.90;;;;;;4982467;28;20034;-81
2022/10/14 12:48:14;;;;;;;30.55;27.70;;;19.70;99.90;;;;;;4994149;28;20066;-81
2022/10/14 12:50:41;;;;;;;29.38;26.58;;;19.80;99.90;;;;;;4991615;28;20038;-81